Delburne, Canada
Current Conditions -  °F | °C
As of 6:00 PM on Tuesday 27 Jan 2015 (Local Time) from CYQF Reporting Station
Broken Clouds Broken Clouds  
Wind Chill: 26°   Ceiling: 17000
Heat Index: 32°   Visibility: 7mi
Dew Point: 28°   Wind: 7mph
Humidity: 87%   Direction: 360°N
Pressure: 29.76"   Gusts: NA
Location:  52.2°N, 113.23°W
Report Text: CYQF 280100Z 36006KT 7SM SCT100 BKN170 M00/M02 A2976 RMK AC3AC4 SLP121
Loading
Personal Weather Stations






























Interactive Weather Map New forecast layout! Learn more

10-Day Weather Forecast

Advertisements
Track Severe Weather on mobile